Ozark, Arkansas
Current Conditions -  °F | °C
As of 10:53 PM on Wednesday 26 Nov 2014 (Local Time) from KFSM Reporting Station
Clear Clear  
Wind Chill: 35°   Ceiling: Unl
Heat Index: 41°   Visibility: 10mi
Dew Point: 26°   Wind: 9mph
Humidity: 55%   Direction: 340°NNW
Pressure: 30.36"   Gusts: NA
Location:  35.49°N, 93.83°W
Report Text: KFSM 270453Z AUTO 34008KT 10SM CLR 05/M03 A3036 RMK AO2 SLP282 T00501033
Loading
Personal Weather Stations






























Interactive Weather Map New forecast layout! Learn more

10-Day Weather Forecast

Advertisements
Track Severe Weather on mobile